Time;durP1;ratioP1;P1;durP2;ratioP2;P2;SDS_P1;SDS_P2;PMS_P1;PMS_P2;Temp;Humidity;BMP_temperature;BMP_pressure;BME280_temperature;BME280_humidity;BME280_pressure;Samples;Min_cycle;Max_cycle;Signal;HPM_P1;HPM_P2
2022/05/06 00:00:38;;;;;;;76.22;8.63;;;;;;;;;;4997758;28;20650;-66
2022/05/06 00:03:03;;;;;;;167.43;10.60;;;;;;;;;;4994772;28;22125;-66
2022/05/06 00:05:30;;;;;;;129.13;10.68;;;;;;;;;;4998223;28;20045;-66
2022/05/06 00:07:55;;;;;;;37.95;9.85;;;;;;;;;;4994131;28;20045;-67
2022/05/06 00:10:20;;;;;;;76.03;10.13;;;;;;;;;;4997180;28;20136;-67
2022/05/06 00:12:46;;;;;;;237.30;11.50;;;;;;;;;;4995839;28;20045;-67
2022/05/06 00:15:11;;;;;;;35.65;8.35;;;;;;;;;;4996502;28;20547;-67
2022/05/06 00:17:37;;;;;;;103.28;10.15;;;;;;;;;;4997970;28;20350;-67
2022/05/06 00:20:02;;;;;;;81.10;8.50;;;;;;;;;;4995753;28;20448;-67
2022/05/06 00:22:28;;;;;;;30.10;8.65;;;;;;;;;;4997784;28;20033;-67
2022/05/06 00:24:56;;;;;;;67.78;8.05;;;;;;;;;;4994684;28;20032;-67
2022/05/06 00:27:21;;;;;;;37.05;8.35;;;;;;;;;;4995320;28;20041;-67
2022/05/06 00:29:47;;;;;;;53.15;8.35;;;;;;;;;;4997804;28;20126;-67
2022/05/06 00:32:15;;;;;;;60.60;8.75;;;;;;;;;;4997059;28;20103;-67
2022/05/06 00:34:40;;;;;;;76.10;9.25;;;;;;;;;;4995365;28;20293;-65
2022/05/06 00:37:05;;;;;;;114.30;11.93;;;;;;;;;;4995040;28;20325;-66
2022/05/06 00:39:31;;;;;;;44.53;11.93;;;;;;;;;;4997346;28;20037;-66
2022/05/06 00:41:56;;;;;;;66.72;11.57;;;;;;;;;;4995498;28;20336;-66
2022/05/06 00:44:22;;;;;;;150.90;12.45;;;;;;;;;;4997418;28;20635;-67
2022/05/06 00:46:50;;;;;;;92.60;13.07;;;;;;;;;;4993936;28;21742;-66
2022/05/06 00:49:15;;;;;;;83.40;13.98;;;;;;;;;;4996899;28;20239;-66
2022/05/06 00:51:42;;;;;;;59.67;12.98;;;;;;;;;;4994374;28;20302;-67
2022/05/06 00:54:07;;;;;;;115.68;13.32;;;;;;;;;;4996903;28;20029;-65
2022/05/06 00:56:33;;;;;;;35.88;11.15;;;;;;;;;;4995345;28;20136;-66
2022/05/06 00:59:01;;;;;;;84.20;11.95;;;;;;;;;;4994674;28;20029;-65
2022/05/06 01:01:26;;;;;;;92.47;10.82;;;;;;;;;;4996152;28;20312;-66
2022/05/06 01:03:53;;;;;;;70.68;11.07;;;;;;;;;;4996071;28;20468;-66
2022/05/06 01:06:19;;;;;;;66.63;11.50;;;;;;;;;;4994231;28;20053;-66
2022/05/06 01:08:44;;;;;;;73.85;12.88;;;;;;;;;;4997202;28;20035;-66
2022/05/06 01:11:11;;;;;;;68.97;10.82;;;;;;;;;;4995925;28;20022;-66
2022/05/06 01:13:44;;;;;;;71.35;11.40;;;;;;;;;;4996422;28;20436;-63
2022/05/06 01:16:10;;;;;;;34.75;9.50;;;;;;;;;;4993041;28;20091;-65
2022/05/06 01:18:36;;;;;;;134.13;11.43;;;;;;;;;;4996348;28;20033;-65
2022/05/06 01:21:02;;;;;;;95.80;13.18;;;;;;;;;;4994832;28;20485;-64
2022/05/06 01:23:31;;;;;;;91.38;13.48;;;;;;;;;;4994070;28;20334;-64
2022/05/06 01:25:59;;;;;;;225.80;14.07;;;;;;;;;;4996502;28;20192;-66
2022/05/06 01:28:29;;;;;;;75.47;11.77;;;;;;;;;;4995322;28;20037;-64
2022/05/06 01:31:00;;;;;;;162.85;13.27;;;;;;;;;;4995816;28;20422;-65
2022/05/06 01:33:27;;;;;;;98.70;12.27;;;;;;;;;;4996010;28;20110;-65
2022/05/06 01:35:55;;;;;;;219.77;13.88;;;;;;;;;;4995421;28;20045;-65
2022/05/06 01:38:37;;;;;;;88.45;11.07;;;;;;;;;;4997902;28;20570;-65
2022/05/06 01:41:03;;;;;;;49.80;10.93;;;;;;;;;;4995046;28;20033;-66
2022/05/06 01:43:42;;;;;;;157.50;11.32;;;;;;;;;;4995311;28;20045;-65
2022/05/06 01:46:09;;;;;;;137.75;11.90;;;;;;;;;;4994712;28;20229;-65
2022/05/06 01:48:36;;;;;;;207.60;14.25;;;;;;;;;;4994343;28;20515;-65
2022/05/06 01:51:01;;;;;;;71.65;10.20;;;;;;;;;;4996009;28;21929;-66
2022/05/06 01:53:27;;;;;;;176.80;13.30;;;;;;;;;;4992465;28;20796;-66
2022/05/06 01:55:52;;;;;;;105.15;12.73;;;;;;;;;;4995886;28;20295;-66
2022/05/06 01:58:18;;;;;;;66.55;12.73;;;;;;;;;;4996004;28;20603;-64
2022/05/06 02:00:46;;;;;;;122.13;13.65;;;;;;;;;;4994783;28;20103;-66
2022/05/06 02:05:16;;;;;;;136.55;14.23;;;;;;;;;;4996297;28;20236;-64
2022/05/06 02:05:56;;;;;;;217.82;16.58;;;;;;;;;;4996065;28;20056;-65
2022/05/06 02:08:22;;;;;;;130.23;14.98;;;;;;;;;;4996068;28;20030;-65
2022/05/06 02:10:47;;;;;;;220.57;16.30;;;;;;;;;;4979395;28;20198;-65
2022/05/06 02:13:15;;;;;;;97.45;14.60;;;;;;;;;;4996580;28;20818;-65
2022/05/06 02:15:40;;;;;;;81.35;14.07;;;;;;;;;;4993613;28;20191;-65
2022/05/06 02:18:06;;;;;;;57.90;11.38;;;;;;;;;;4993837;28;20055;-65
2022/05/06 02:20:31;;;;;;;74.28;11.48;;;;;;;;;;4994273;28;20114;-65
2022/05/06 02:22:57;;;;;;;166.65;13.32;;;;;;;;;;4996216;28;20111;-65
2022/05/06 02:25:22;;;;;;;149.50;14.82;;;;;;;;;;4996375;28;20041;-67
2022/05/06 02:27:48;;;;;;;118.03;13.10;;;;;;;;;;4995508;28;20036;-67
2022/05/06 02:33:12;;;;;;;97.85;13.88;;;;;;;;;;4994817;28;20740;-65
2022/05/06 02:35:37;;;;;;;160.23;15.20;;;;;;;;;;4995893;28;20445;-65
2022/05/06 02:38:05;;;;;;;113.10;12.38;;;;;;;;;;4994747;28;20029;-65
2022/05/06 02:40:31;;;;;;;126.88;11.30;;;;;;;;;;4998576;28;20030;-65
2022/05/06 02:42:58;;;;;;;100.80;9.85;;;;;;;;;;4995252;28;20432;-65
2022/05/06 02:45:24;;;;;;;133.98;10.90;;;;;;;;;;4999390;28;20083;-65
2022/05/06 02:47:49;;;;;;;152.90;11.93;;;;;;;;;;4999299;28;20217;-65
2022/05/06 02:50:14;;;;;;;95.75;9.48;;;;;;;;;;4996446;28;20465;-65
2022/05/06 02:52:40;;;;;;;137.23;11.13;;;;;;;;;;4998832;28;20582;-65
2022/05/06 02:55:05;;;;;;;157.90;12.07;;;;;;;;;;4996183;28;20167;-64
2022/05/06 02:57:31;;;;;;;81.40;11.38;;;;;;;;;;4999487;28;20128;-65
2022/05/06 02:59:56;;;;;;;140.52;13.20;;;;;;;;;;4998891;28;20045;-65
2022/05/06 03:02:23;;;;;;;112.50;13.05;;;;;;;;;;4997779;28;20132;-66
2022/05/06 03:04:48;;;;;;;123.22;12.40;;;;;;;;;;4996142;28;20616;-63
2022/05/06 03:07:14;;;;;;;115.88;11.57;;;;;;;;;;5012869;28;20520;-66
2022/05/06 03:09:39;;;;;;;158.60;12.00;;;;;;;;;;4995994;28;20175;-64
2022/05/06 03:12:06;;;;;;;161.18;11.73;;;;;;;;;;4997990;28;20041;-64
2022/05/06 03:14:31;;;;;;;106.40;10.88;;;;;;;;;;4997580;28;20548;-64
2022/05/06 03:16:56;;;;;;;197.00;13.45;;;;;;;;;;4998432;28;20107;-65
2022/05/06 03:19:22;;;;;;;116.05;11.38;;;;;;;;;;4999048;28;20119;-64
2022/05/06 03:21:53;;;;;;;115.38;11.98;;;;;;;;;;4999156;28;20147;-64
2022/05/06 03:24:20;;;;;;;150.38;12.20;;;;;;;;;;4997187;28;20529;-65
2022/05/06 03:26:46;;;;;;;172.55;11.55;;;;;;;;;;4997143;28;20213;-64
2022/05/06 03:29:11;;;;;;;150.80;11.52;;;;;;;;;;4997929;28;20044;-66
2022/05/06 03:31:37;;;;;;;99.00;11.13;;;;;;;;;;4997807;28;20468;-65
2022/05/06 03:34:05;;;;;;;52.45;9.80;;;;;;;;;;4996635;28;20029;-65
2022/05/06 03:36:30;;;;;;;72.20;9.48;;;;;;;;;;5006622;28;20656;-65
2022/05/06 03:38:58;;;;;;;114.80;10.75;;;;;;;;;;4996357;28;20049;-63
2022/05/06 03:41:26;;;;;;;90.97;10.00;;;;;;;;;;4999482;28;20120;-65
2022/05/06 03:43:52;;;;;;;111.07;11.13;;;;;;;;;;4996818;28;20147;-65
2022/05/06 03:46:17;;;;;;;72.28;9.68;;;;;;;;;;4997381;28;20026;-65
2022/05/06 03:48:46;;;;;;;106.32;10.43;;;;;;;;;;4995764;28;20033;-65
2022/05/06 03:51:20;;;;;;;120.90;11.52;;;;;;;;;;4994103;28;20066;-65
2022/05/06 03:53:47;;;;;;;69.78;9.48;;;;;;;;;;4996272;28;20033;-65
2022/05/06 03:56:12;;;;;;;72.35;9.95;;;;;;;;;;4997217;28;20544;-66
2022/05/06 03:58:37;;;;;;;106.78;10.73;;;;;;;;;;4998332;28;20036;-66
2022/05/06 04:01:03;;;;;;;100.13;10.43;;;;;;;;;;4996050;28;20397;-66
2022/05/06 04:03:28;;;;;;;85.25;10.10;;;;;;;;;;4998031;28;20041;-66
2022/05/06 04:05:53;;;;;;;76.05;9.98;;;;;;;;;;4996155;28;20565;-66
2022/05/06 04:08:21;;;;;;;64.90;8.98;;;;;;;;;;4997033;28;20600;-65
2022/05/06 04:10:46;;;;;;;97.28;10.07;;;;;;;;;;4997798;28;21881;-66
2022/05/06 04:13:16;;;;;;;60.40;9.48;;;;;;;;;;4996419;28;20098;-66
2022/05/06 04:15:43;;;;;;;65.53;8.82;;;;;;;;;;4996536;28;20190;-65
2022/05/06 04:18:09;;;;;;;95.20;9.35;;;;;;;;;;4996933;28;20040;-65
2022/05/06 04:23:29;;;;;;;113.93;8.45;;;;;;;;;;4997395;28;22043;-65
2022/05/06 04:25:58;;;;;;;90.90;7.88;;;;;;;;;;4995121;28;20594;-66
2022/05/06 04:28:24;;;;;;;51.25;8.18;;;;;;;;;;4996316;28;20044;-65
2022/05/06 04:30:51;;;;;;;86.10;8.60;;;;;;;;;;5011316;28;20373;-65
2022/05/06 04:33:16;;;;;;;92.72;7.18;;;;;;;;;;4996520;28;20528;-65
2022/05/06 04:35:42;;;;;;;57.10;7.15;;;;;;;;;;4995711;28;20033;-65
2022/05/06 04:38:08;;;;;;;87.65;8.02;;;;;;;;;;4996686;28;20186;-65
2022/05/06 04:40:34;;;;;;;107.07;8.30;;;;;;;;;;4999169;28;20037;-65
2022/05/06 04:43:03;;;;;;;67.32;7.30;;;;;;;;;;4996783;28;20151;-65
2022/05/06 04:45:29;;;;;;;100.70;7.47;;;;;;;;;;4997440;28;20477;-64
2022/05/06 04:47:54;;;;;;;55.30;7.70;;;;;;;;;;4997057;28;20266;-65
2022/05/06 04:50:21;;;;;;;83.25;7.88;;;;;;;;;;4993231;28;20713;-65
2022/05/06 04:52:46;;;;;;;75.97;6.95;;;;;;;;;;4994095;28;20502;-64
2022/05/06 04:55:11;;;;;;;79.53;7.97;;;;;;;;;;4995912;28;20040;-66
2022/05/06 04:57:37;;;;;;;60.13;7.78;;;;;;;;;;4996595;28;20029;-66
2022/05/06 05:00:03;;;;;;;73.55;8.05;;;;;;;;;;4978550;28;20056;-65
2022/05/06 05:02:29;;;;;;;32.20;7.03;;;;;;;;;;4994442;28;20065;-66
2022/05/06 05:04:57;;;;;;;100.32;8.23;;;;;;;;;;4995656;28;20371;-67
2022/05/06 05:07:22;;;;;;;79.82;8.63;;;;;;;;;;4993383;28;20040;-66
2022/05/06 05:09:48;;;;;;;52.25;8.27;;;;;;;;;;4994123;28;20068;-65
2022/05/06 05:12:13;;;;;;;113.05;9.73;;;;;;;;;;4996762;28;20875;-66
2022/05/06 05:14:39;;;;;;;84.93;9.32;;;;;;;;;;4994212;28;21920;-66
2022/05/06 05:17:05;;;;;;;84.13;8.43;;;;;;;;;;4996320;28;20492;-65
2022/05/06 05:19:30;;;;;;;65.03;8.57;;;;;;;;;;4995324;28;20033;-65
2022/05/06 05:21:58;;;;;;;74.68;8.85;;;;;;;;;;4996631;28;20126;-64
2022/05/06 05:24:23;;;;;;;83.63;9.70;;;;;;;;;;4990887;28;20037;-65
2022/05/06 05:26:48;;;;;;;53.78;9.35;;;;;;;;;;4992645;28;20170;-67
2022/05/06 05:29:17;;;;;;;62.05;8.75;;;;;;;;;;4996088;28;20061;-67
2022/05/06 05:31:43;;;;;;;40.70;7.78;;;;;;;;;;4996710;28;20256;-67
2022/05/06 05:34:08;;;;;;;97.38;8.95;;;;;;;;;;4993490;28;20384;-67
2022/05/06 05:36:33;;;;;;;63.85;7.05;;;;;;;;;;4990710;28;20117;-67
2022/05/06 05:38:59;;;;;;;71.30;7.82;;;;;;;;;;4994994;28;20041;-66
2022/05/06 05:41:24;;;;;;;62.35;8.02;;;;;;;;;;4989269;28;20038;-65
2022/05/06 05:49:19;;;;;;;70.78;6.50;;;;;;;;;;4993541;28;20414;-64
2022/05/06 05:51:44;;;;;;;77.28;6.78;;;;;;;;;;4994181;28;20535;-65
2022/05/06 05:54:12;;;;;;;33.70;6.38;;;;;;;;;;4995127;28;20076;-65
2022/05/06 05:56:37;;;;;;;17.48;5.75;;;;;;;;;;4994289;28;20128;-64
2022/05/06 05:59:03;;;;;;;23.98;5.95;;;;;;;;;;5009918;28;20578;-65
2022/05/06 06:01:29;;;;;;;41.70;6.40;;;;;;;;;;4993715;28;20611;-66
2022/05/06 06:03:55;;;;;;;46.90;6.47;;;;;;;;;;4995389;28;20481;-66
2022/05/06 06:06:21;;;;;;;48.40;6.13;;;;;;;;;;4996106;28;20040;-65
2022/05/06 06:08:46;;;;;;;45.17;5.63;;;;;;;;;;5004348;28;20143;-64
2022/05/06 06:11:12;;;;;;;57.22;5.32;;;;;;;;;;4995378;28;20396;-64
2022/05/06 06:13:37;;;;;;;30.00;5.10;;;;;;;;;;4993164;28;20210;-64
2022/05/06 06:16:02;;;;;;;23.23;4.80;;;;;;;;;;4996458;28;20068;-65
2022/05/06 06:18:28;;;;;;;33.20;5.10;;;;;;;;;;4996861;28;20812;-65
2022/05/06 06:20:56;;;;;;;28.98;4.75;;;;;;;;;;4999375;28;20580;-66
2022/05/06 06:23:22;;;;;;;35.70;4.82;;;;;;;;;;5000028;28;20120;-66
2022/05/06 06:25:48;;;;;;;17.83;4.50;;;;;;;;;;4999344;28;20032;-64
2022/05/06 06:28:14;;;;;;;25.10;4.72;;;;;;;;;;4999531;28;20048;-65
2022/05/06 06:30:40;;;;;;;37.28;4.40;;;;;;;;;;4999731;28;22284;-66
2022/05/06 06:33:10;;;;;;;41.55;5.00;;;;;;;;;;4998191;28;20044;-65
2022/05/06 06:35:37;;;;;;;13.50;4.90;;;;;;;;;;5000478;28;20274;-65
2022/05/06 06:38:06;;;;;;;16.48;5.13;;;;;;;;;;4998653;28;20045;-65
2022/05/06 06:40:31;;;;;;;18.35;4.68;;;;;;;;;;5000108;28;20296;-66
2022/05/06 06:43:02;;;;;;;9.95;5.28;;;;;;;;;;4997638;28;20466;-65
2022/05/06 06:45:27;;;;;;;5.90;4.35;;;;;;;;;;4998612;28;20045;-66
2022/05/06 06:47:53;;;;;;;8.20;4.63;;;;;;;;;;4998586;28;20402;-67
2022/05/06 06:50:18;;;;;;;7.03;4.30;;;;;;;;;;4997826;28;20120;-67
2022/05/06 06:52:44;;;;;;;6.22;4.25;;;;;;;;;;4996873;28;20105;-66
2022/05/06 06:55:09;;;;;;;6.18;4.18;;;;;;;;;;4999149;28;20648;-66
2022/05/06 06:57:35;;;;;;;5.57;4.25;;;;;;;;;;4998049;28;20140;-67
2022/05/06 07:00:00;;;;;;;23.38;19.48;;;;;;;;;;4995764;28;20033;-67
2022/05/06 07:02:26;;;;;;;18.58;13.73;;;;;;;;;;4996671;28;20029;-68
2022/05/06 07:04:53;;;;;;;17.40;14.50;;;;;;;;;;4997568;28;20529;-66
2022/05/06 07:12:47;;;;;;;18.50;15.02;;;;;;;;;;5002216;28;20033;-67
2022/05/06 07:15:12;;;;;;;13.70;11.93;;;;;;;;;;5002927;28;20885;-66
2022/05/06 07:17:38;;;;;;;24.58;14.68;;;;;;;;;;5003082;28;20124;-66
2022/05/06 07:20:07;;;;;;;25.58;15.65;;;;;;;;;;4996782;28;20037;-67
2022/05/06 07:22:32;;;;;;;18.95;13.20;;;;;;;;;;5004397;28;22497;-68
2022/05/06 07:25:00;;;;;;;18.48;12.98;;;;;;;;;;5002622;28;20040;-68
2022/05/06 07:27:25;;;;;;;16.35;12.10;;;;;;;;;;4999392;28;21109;-68
2022/05/06 07:29:51;;;;;;;18.40;11.13;;;;;;;;;;5000054;28;21388;-67
2022/05/06 07:32:18;;;;;;;20.85;12.70;;;;;;;;;;4998767;28;20043;-68
2022/05/06 07:34:43;;;;;;;25.75;11.45;;;;;;;;;;4995268;28;20048;-69
2022/05/06 07:37:09;;;;;;;20.50;8.90;;;;;;;;;;4996751;28;20446;-67
2022/05/06 07:39:34;;;;;;;12.45;8.43;;;;;;;;;;4994972;28;20549;-67
2022/05/06 07:42:00;;;;;;;13.10;9.00;;;;;;;;;;5012196;28;20703;-66
2022/05/06 07:44:28;;;;;;;9.02;8.05;;;;;;;;;;4997389;28;20720;-67
2022/05/06 07:46:54;;;;;;;10.40;9.43;;;;;;;;;;4996209;28;20037;-66
2022/05/06 07:49:19;;;;;;;9.05;7.90;;;;;;;;;;4998083;28;21879;-66
2022/05/06 07:51:44;;;;;;;20.88;10.57;;;;;;;;;;4994421;28;20466;-66
2022/05/06 07:54:09;;;;;;;16.50;8.70;;;;;;;;;;4995011;28;20206;-67
2022/05/06 07:56:35;;;;;;;10.98;4.68;;;;;;;;;;4997345;28;20052;-66
2022/05/06 07:59:00;;;;;;;7.85;3.90;;;;;;;;;;4999940;28;20026;-66
2022/05/06 08:06:53;;;;;;;7.90;5.82;;;;;;;;;;4997569;28;20041;-66
2022/05/06 08:09:20;;;;;;;7.10;4.93;;;;;;;;;;4998143;28;20029;-67
2022/05/06 08:11:46;;;;;;;5.05;4.25;;;;;;;;;;4991719;28;20037;-67
2022/05/06 08:14:15;;;;;;;6.72;6.00;;;;;;;;;;4996579;28;22699;-67
2022/05/06 08:16:41;;;;;;;6.15;3.50;;;;;;;;;;4995968;28;20036;-66
2022/05/06 08:19:06;;;;;;;4.07;3.47;;;;;;;;;;4998751;28;20749;-66
2022/05/06 08:21:32;;;;;;;4.93;4.43;;;;;;;;;;4995993;28;20025;-66
2022/05/06 08:23:57;;;;;;;5.88;4.07;;;;;;;;;;4999449;28;20571;-66
2022/05/06 08:26:23;;;;;;;3.63;2.97;;;;;;;;;;4996930;28;20101;-66
2022/05/06 08:28:48;;;;;;;2.75;2.00;;;;;;;;;;4996782;28;20048;-67
2022/05/06 08:31:13;;;;;;;3.35;2.15;;;;;;;;;;4994636;28;20047;-66
2022/05/06 08:33:39;;;;;;;5.90;4.80;;;;;;;;;;4997443;28;20030;-65
2022/05/06 08:36:07;;;;;;;3.67;3.10;;;;;;;;;;4998270;28;20052;-66
2022/05/06 08:38:32;;;;;;;3.05;2.75;;;;;;;;;;4996362;28;22099;-67
2022/05/06 08:40:59;;;;;;;2.67;2.00;;;;;;;;;;4996969;28;20639;-68
2022/05/06 08:43:27;;;;;;;2.13;1.60;;;;;;;;;;4994818;28;20120;-68
2022/05/06 08:51:26;;;;;;;1.92;1.30;;;;;;;;;;4997256;28;20056;-68
2022/05/06 08:53:54;;;;;;;2.75;1.60;;;;;;;;;;4994715;28;20037;-69
2022/05/06 08:56:19;;;;;;;3.13;1.33;;;;;;;;;;5000389;28;20056;-68
2022/05/06 08:58:45;;;;;;;3.78;1.85;;;;;;;;;;5003202;28;20229;-74
2022/05/06 09:01:11;;;;;;;2.53;1.52;;;;;;;;;;4998711;28;20052;-71
2022/05/06 09:03:40;;;;;;;3.25;1.45;;;;;;;;;;4998647;28;20037;-71
2022/05/06 09:06:16;;;;;;;2.53;1.77;;;;;;;;;;4999904;28;20934;-72
2022/05/06 09:08:46;;;;;;;2.67;1.50;;;;;;;;;;5001422;28;20061;-72
2022/05/06 09:11:11;;;;;;;3.50;1.70;;;;;;;;;;5001830;28;20094;-75
2022/05/06 09:13:37;;;;;;;3.35;1.40;;;;;;;;;;5002276;28;20045;-73
2022/05/06 09:19:12;;;;;;;2.10;1.30;;;;;;;;;;5001628;28;20044;-72
2022/05/06 09:21:38;;;;;;;4.45;2.00;;;;;;;;;;4998011;28;20114;-72
2022/05/06 09:24:17;;;;;;;7.53;4.97;;;;;;;;;;4997864;28;20037;-74
2022/05/06 09:26:55;;;;;;;3.95;2.72;;;;;;;;;;4999159;28;20158;-69
2022/05/06 09:29:41;;;;;;;4.63;3.17;;;;;;;;;;5001449;28;20029;-71
2022/05/06 09:32:26;;;;;;;8.20;3.45;;;;;;;;;;4999322;28;20136;-71
2022/05/06 09:34:53;;;;;;;5.88;4.28;;;;;;;;;;5001086;28;20098;-70
2022/05/06 09:37:33;;;;;;;5.32;4.20;;;;;;;;;;4999855;28;20044;-67
2022/05/06 09:40:02;;;;;;;7.80;6.23;;;;;;;;;;4995524;28;20030;-72
2022/05/06 09:42:32;;;;;;;9.07;6.10;;;;;;;;;;4991746;28;20163;-72
2022/05/06 09:44:58;;;;;;;6.40;4.93;;;;;;;;;;5000677;28;20111;-70
2022/05/06 09:47:25;;;;;;;5.75;4.80;;;;;;;;;;4999242;28;20076;-65
2022/05/06 09:49:52;;;;;;;9.13;7.45;;;;;;;;;;4997111;28;20029;-65
2022/05/06 09:52:17;;;;;;;10.35;6.90;;;;;;;;;;4999980;28;20056;-64
2022/05/06 09:54:43;;;;;;;8.45;6.18;;;;;;;;;;5001330;28;20148;-63
2022/05/06 09:57:12;;;;;;;10.23;8.20;;;;;;;;;;5004238;28;20739;-65
2022/05/06 09:59:38;;;;;;;10.73;7.18;;;;;;;;;;5003814;28;20029;-65
2022/05/06 10:02:07;;;;;;;7.63;6.60;;;;;;;;;;5004714;28;20040;-67
2022/05/06 10:04:38;;;;;;;9.07;7.97;;;;;;;;;;5018535;28;20121;-68
2022/05/06 10:07:09;;;;;;;8.60;5.75;;;;;;;;;;5004759;28;20064;-61
2022/05/06 10:09:47;;;;;;;9.45;8.00;;;;;;;;;;5001231;28;20029;-68
2022/05/06 10:12:14;;;;;;;8.82;6.43;;;;;;;;;;5003978;28;20066;-65
2022/05/06 10:14:42;;;;;;;7.03;4.80;;;;;;;;;;5000946;28;20083;-64
2022/05/06 10:17:08;;;;;;;10.20;6.35;;;;;;;;;;5003313;28;20064;-65
2022/05/06 10:19:36;;;;;;;9.68;7.10;;;;;;;;;;5002990;28;20037;-65
2022/05/06 10:22:03;;;;;;;14.00;10.43;;;;;;;;;;5003002;28;20060;-65
2022/05/06 10:24:37;;;;;;;15.48;10.93;;;;;;;;;;5001174;28;20603;-65
2022/05/06 10:27:20;;;;;;;16.00;11.85;;;;;;;;;;5001327;28;20034;-65
2022/05/06 10:33:02;;;;;;;17.60;12.52;;;;;;;;;;5002471;28;20030;-63
2022/05/06 10:35:37;;;;;;;17.95;15.25;;;;;;;;;;4988863;28;20072;-65
2022/05/06 10:38:18;;;;;;;18.98;13.90;;;;;;;;;;5003785;28;20867;-63
2022/05/06 10:40:52;;;;;;;20.63;14.18;;;;;;;;;;5004762;28;20041;-63
2022/05/06 10:43:37;;;;;;;19.27;14.20;;;;;;;;;;5002031;28;20127;-64
2022/05/06 10:46:05;;;;;;;21.23;15.35;;;;;;;;;;5003086;28;20033;-62
2022/05/06 10:48:30;;;;;;;17.60;14.43;;;;;;;;;;5000736;28;20041;-65
2022/05/06 10:51:16;;;;;;;16.77;13.32;;;;;;;;;;4993652;28;20758;-64
2022/05/06 10:53:41;;;;;;;18.20;13.65;;;;;;;;;;5002711;28;20080;-65
2022/05/06 10:56:08;;;;;;;18.30;13.75;;;;;;;;;;5003897;28;20041;-62
2022/05/06 10:58:33;;;;;;;15.40;12.98;;;;;;;;;;5002495;28;20056;-61
2022/05/06 11:00:59;;;;;;;17.35;12.77;;;;;;;;;;4999203;28;20048;-65
2022/05/06 11:03:25;;;;;;;19.90;15.25;;;;;;;;;;5016134;28;20041;-63
2022/05/06 11:05:51;;;;;;;17.88;14.43;;;;;;;;;;5002563;28;20171;-65
2022/05/06 11:08:19;;;;;;;17.80;14.48;;;;;;;;;;5001891;28;20040;-64
2022/05/06 11:10:44;;;;;;;18.10;13.73;;;;;;;;;;4998688;28;20260;-64
2022/05/06 11:13:09;;;;;;;18.55;14.50;;;;;;;;;;4997508;28;20476;-62
2022/05/06 11:15:37;;;;;;;15.95;13.32;;;;;;;;;;4997150;28;20036;-63
2022/05/06 11:18:04;;;;;;;18.60;13.80;;;;;;;;;;4997196;28;20034;-63
2022/05/06 11:20:31;;;;;;;18.77;14.23;;;;;;;;;;4996673;28;20029;-62
2022/05/06 11:22:59;;;;;;;17.13;13.45;;;;;;;;;;4996102;28;20477;-65
2022/05/06 11:25:29;;;;;;;18.70;13.45;;;;;;;;;;4998150;28;20041;-63
2022/05/06 11:27:55;;;;;;;16.85;13.75;;;;;;;;;;4997427;28;20033;-63
2022/05/06 11:30:22;;;;;;;15.20;12.60;;;;;;;;;;4996329;28;20330;-64
2022/05/06 11:32:49;;;;;;;18.95;13.40;;;;;;;;;;5000004;28;20140;-65
2022/05/06 11:35:40;;;;;;;17.58;13.48;;;;;;;;;;4999300;28;20060;-64
2022/05/06 11:38:06;;;;;;;18.67;14.07;;;;;;;;;;5006036;28;22437;-67
2022/05/06 11:40:33;;;;;;;18.63;14.25;;;;;;;;;;5001348;28;20039;-64
2022/05/06 11:43:08;;;;;;;17.92;13.32;;;;;;;;;;4999475;28;20041;-64
2022/05/06 11:48:22;;;;;;;15.07;12.85;;;;;;;;;;5000061;28;20036;-65
2022/05/06 11:50:49;;;;;;;18.92;13.45;;;;;;;;;;4999502;28;20129;-65
2022/05/06 11:53:17;;;;;;;16.35;13.30;;;;;;;;;;5001230;28;20041;-64
2022/05/06 11:55:48;;;;;;;18.75;14.52;;;;;;;;;;4996402;28;20254;-64
2022/05/06 11:58:14;;;;;;;17.17;13.40;;;;;;;;;;5001875;28;20090;-63
2022/05/06 12:00:39;;;;;;;18.17;13.48;;;;;;;;;;5001341;28;21287;-63
2022/05/06 12:03:06;;;;;;;17.25;14.13;;;;;;;;;;5001380;28;20037;-64
2022/05/06 12:05:35;;;;;;;18.63;14.52;;;;;;;;;;4999929;28;25411;-62
2022/05/06 12:08:00;;;;;;;18.55;14.57;;;;;;;;;;4999838;28;20127;-63
2022/05/06 12:10:27;;;;;;;17.50;14.63;;;;;;;;;;5005647;28;20474;-65
2022/05/06 12:12:57;;;;;;;22.45;15.57;;;;;;;;;;5000121;28;20045;-63
2022/05/06 12:15:29;;;;;;;16.38;14.18;;;;;;;;;;4997018;28;20148;-64
2022/05/06 12:18:04;;;;;;;20.02;15.02;;;;;;;;;;5007525;28;20252;-64
2022/05/06 12:20:31;;;;;;;18.75;14.63;;;;;;;;;;4993730;28;20524;-64
2022/05/06 12:22:59;;;;;;;18.85;14.32;;;;;;;;;;4995899;28;20096;-64
2022/05/06 12:25:24;;;;;;;18.38;13.38;;;;;;;;;;4996938;28;20368;-64
2022/05/06 12:28:07;;;;;;;18.15;13.50;;;;;;;;;;4997055;28;20319;-64
2022/05/06 12:30:32;;;;;;;18.80;13.93;;;;;;;;;;4997528;28;20382;-64
2022/05/06 12:33:04;;;;;;;15.85;13.07;;;;;;;;;;4995855;28;20695;-65
2022/05/06 12:35:32;;;;;;;17.08;12.85;;;;;;;;;;4996019;28;20579;-62
2022/05/06 12:38:01;;;;;;;18.52;14.07;;;;;;;;;;4973974;28;20493;-62
2022/05/06 12:40:30;;;;;;;18.13;14.10;;;;;;;;;;4995356;28;20414;-62
2022/05/06 12:43:04;;;;;;;18.52;14.30;;;;;;;;;;4994116;28;20140;-61
2022/05/06 12:45:29;;;;;;;20.67;14.60;;;;;;;;;;4993384;28;20494;-62
2022/05/06 12:50:43;;;;;;;18.85;14.23;;;;;;;;;;4994511;28;20305;-65
2022/05/06 12:53:08;;;;;;;20.25;15.68;;;;;;;;;;4995123;28;20120;-70
2022/05/06 12:55:37;;;;;;;16.17;13.32;;;;;;;;;;4991555;28;20075;-62
2022/05/06 12:58:02;;;;;;;17.77;14.93;;;;;;;;;;4995905;28;20044;-64
2022/05/06 13:00:27;;;;;;;21.15;14.77;;;;;;;;;;4993065;28;20120;-64
2022/05/06 13:02:53;;;;;;;16.58;13.23;;;;;;;;;;4993166;28;20183;-63
2022/05/06 13:05:18;;;;;;;17.80;13.82;;;;;;;;;;4993221;28;20037;-63
2022/05/06 13:07:44;;;;;;;18.33;14.05;;;;;;;;;;4993917;28;20492;-64
2022/05/06 13:10:09;;;;;;;19.55;14.55;;;;;;;;;;4995929;28;20030;-63
2022/05/06 13:12:35;;;;;;;20.17;14.75;;;;;;;;;;4995658;28;20037;-64
2022/05/06 13:15:00;;;;;;;18.48;13.65;;;;;;;;;;4993996;28;20041;-67
2022/05/06 13:17:25;;;;;;;19.65;13.57;;;;;;;;;;4991228;28;20193;-65
2022/05/06 13:19:51;;;;;;;18.13;13.45;;;;;;;;;;4999267;28;20068;-65
2022/05/06 13:22:17;;;;;;;17.02;12.43;;;;;;;;;;4999697;28;20049;-65
2022/05/06 13:24:42;;;;;;;18.05;12.57;;;;;;;;;;4999479;28;20079;-62
2022/05/06 13:27:08;;;;;;;18.10;13.15;;;;;;;;;;4995494;28;20053;-63
2022/05/06 13:29:33;;;;;;;16.92;12.38;;;;;;;;;;4995168;28;20068;-61
2022/05/06 13:31:58;;;;;;;17.55;12.98;;;;;;;;;;4996571;28;20583;-63
2022/05/06 13:34:24;;;;;;;17.00;11.82;;;;;;;;;;4993096;28;20651;-63
2022/05/06 13:36:49;;;;;;;15.25;11.45;;;;;;;;;;4995310;28;20044;-62
2022/05/06 13:39:14;;;;;;;14.45;11.13;;;;;;;;;;4993184;28;20483;-62
2022/05/06 13:41:41;;;;;;;14.27;10.90;;;;;;;;;;4993501;28;20174;-63
2022/05/06 13:44:07;;;;;;;15.80;10.85;;;;;;;;;;4994696;28;20037;-62
2022/05/06 13:46:32;;;;;;;13.32;10.60;;;;;;;;;;4995748;28;20030;-63
2022/05/06 13:48:58;;;;;;;13.80;10.48;;;;;;;;;;4996769;28;20400;-62
2022/05/06 13:51:24;;;;;;;13.20;9.43;;;;;;;;;;4992758;28;20416;-64
2022/05/06 13:53:49;;;;;;;11.52;9.35;;;;;;;;;;4996320;28;20044;-64
2022/05/06 13:59:05;;;;;;;16.10;11.18;;;;;;;;;;4995388;28;20029;-62
2022/05/06 14:01:31;;;;;;;14.88;11.73;;;;;;;;;;4995611;28;20575;-63
2022/05/06 14:03:56;;;;;;;18.05;12.90;;;;;;;;;;4996011;28;20297;-64
2022/05/06 14:06:22;;;;;;;17.17;12.25;;;;;;;;;;4996306;28;20262;-63
2022/05/06 14:08:47;;;;;;;20.38;12.50;;;;;;;;;;4995848;28;20900;-65
2022/05/06 14:11:13;;;;;;;17.23;13.40;;;;;;;;;;4996267;28;20511;-68
2022/05/06 14:13:38;;;;;;;17.58;12.98;;;;;;;;;;4993760;28;20208;-64
2022/05/06 14:16:07;;;;;;;18.98;14.00;;;;;;;;;;4991732;28;20055;-64
2022/05/06 14:18:32;;;;;;;18.25;13.43;;;;;;;;;;4997579;28;20041;-64
2022/05/06 14:20:57;;;;;;;19.35;14.82;;;;;;;;;;4997082;28;21163;-64
2022/05/06 14:23:24;;;;;;;20.70;14.65;;;;;;;;;;4998688;28;20036;-64
2022/05/06 14:25:49;;;;;;;18.80;14.23;;;;;;;;;;4997883;28;20548;-63
2022/05/06 14:28:15;;;;;;;21.15;15.02;;;;;;;;;;4996454;28;20120;-64
2022/05/06 14:30:41;;;;;;;22.05;14.50;;;;;;;;;;4995566;28;20044;-63
2022/05/06 14:33:07;;;;;;;19.05;14.68;;;;;;;;;;4995186;28;20038;-63
2022/05/06 14:35:33;;;;;;;22.42;15.10;;;;;;;;;;4993865;28;20134;-64
2022/05/06 14:38:00;;;;;;;22.55;15.00;;;;;;;;;;5011911;28;21074;-64
2022/05/06 14:40:25;;;;;;;22.80;15.05;;;;;;;;;;4997236;28;20105;-65
2022/05/06 14:42:50;;;;;;;23.30;15.27;;;;;;;;;;4999190;28;20128;-64
2022/05/06 14:45:16;;;;;;;18.73;14.63;;;;;;;;;;4998193;28;20074;-65
2022/05/06 14:47:42;;;;;;;21.50;14.88;;;;;;;;;;4998821;28;20763;-65
2022/05/06 14:50:08;;;;;;;23.33;16.60;;;;;;;;;;4996219;28;21015;-64
2022/05/06 14:52:34;;;;;;;23.90;16.17;;;;;;;;;;4999661;28;20080;-62
2022/05/06 14:55:03;;;;;;;23.10;15.85;;;;;;;;;;4994895;28;20608;-65
2022/05/06 14:57:28;;;;;;;24.10;16.05;;;;;;;;;;4997983;28;20037;-64
2022/05/06 14:59:53;;;;;;;21.10;16.10;;;;;;;;;;4995928;28;20710;-64
2022/05/06 15:02:19;;;;;;;24.42;16.40;;;;;;;;;;4997348;28;20048;-64
2022/05/06 15:04:44;;;;;;;21.60;15.25;;;;;;;;;;4997356;28;20052;-64